This is the latest recevied weather packets stored in our database for station/object VE9LJW. If no packets are shown the sender has not sent any weather packets the latest 10 day(s).
| Time | Temp. | Humidity | Pressure | Rain* | Wind** | Luminosity | Snow |
|---|---|---|---|---|---|---|---|
| 1777916935 | 17.78° C | 47% | 1000 hPa | 0 mm | - | 729 W/m² | - |
| 1777916633 | 18.89° C | 46% | 1000 hPa | 0 mm | - | 422 W/m² | - |
| 1777916330 | 17.78° C | 44% | 1000.1 hPa | 0 mm | - | 755 W/m² | - |
| 1777916026 | 16.67° C | 46% | 999.9 hPa | 0 mm | - | 555 W/m² | - |
| 1777915723 | 17.22° C | 46% | 999.9 hPa | 0 mm | - | 239 W/m² | - |
| 1777915420 | 17.78° C | 43% | 1000 hPa | 0 mm | - | 224 W/m² | - |
| 1777915115 | 17.78° C | 44% | 1000.1 hPa | 0 mm | - | 590 W/m² | - |
| 1777914813 | 17.78° C | 42% | 1000.3 hPa | 0 mm | - | 697 W/m² | - |
| 1777914510 | 17.22° C | 44% | 1000.4 hPa | 0 mm | - | 708 W/m² | - |
| 1777914207 | 18.33° C | 43% | 1000.4 hPa | 0 mm | - | 220 W/m² | - |
| 1777913903 | 17.78° C | 43% | 1000.4 hPa | 0 mm | - | 685 W/m² | - |
| 1777913600 | 17.22° C | 42% | 1000.5 hPa | 0 mm | - | 678 W/m² | - |
| 1777913296 | 16.67° C | 43% | 1000.5 hPa | 0 mm | - | 723 W/m² | - |
| 1777912994 | 17.22° C | 43% | 1000.4 hPa | 0 mm | - | 714 W/m² | - |
| 1777912689 | 16.67° C | 45% | 1000.7 hPa | 0 mm | - | 685 W/m² | - |
| 1777912385 | 16.67° C | 46% | 1000.5 hPa | 0 mm | - | 615 W/m² | - |
| 1777912082 | 16.67° C | 47% | 1000.5 hPa | 0 mm | - | 672 W/m² | - |
| 1777911777 | 16.67° C | 46% | 1000.6 hPa | 0 mm | - | 708 W/m² | - |
| 1777911475 | 16.67° C | 46% | 1000.8 hPa | 0 mm | - | 663 W/m² | - |
| 1777911172 | 16.11° C | 46% | 1000.8 hPa | 0 mm | - | 710 W/m² | - |
| 1777910869 | 16.11° C | 49% | 1000.9 hPa | 0 mm | - | 643 W/m² | - |
| 1777910565 | 16.11° C | 47% | 1001 hPa | 0 mm | - | 695 W/m² | - |
| 1777910263 | 16.11° C | 49% | 1001.3 hPa | 0 mm | - | 684 W/m² | - |
| 1777909959 | 15.56° C | 50% | 1001 hPa | 0 mm | - | 747 W/m² | - |
| 1777909656 | 16.11° C | 51% | 1001.2 hPa | 0 mm | - | 703 W/m² | - |
* Rain latest hour (hover to see other rain measurements)
** Current wind speed in m/s (hover to see current wind gust speed)